| time (UTC) | temp C | wind direction | speed KPH | gust KPH | rain 1hr cm | rain 24hr cm | rain mn cm | humidity % | barometer mb |
| 20260906183903 | 20 | 86 | 3.2 | 9.7 | 0.30 | 5.33 | 5.33 | 94 | 1015.9 |
| 20260906182404 | 20 | 132 | 17.7 | 25.7 | 0.33 | 5.28 | 5.28 | 95 | 1017.3 |
| 20260906181404 | 20 | 129 | 12.9 | 19.3 | 0.38 | 5.23 | 5.23 | 94 | 1017.5 |
| 20260906180903 | 20 | 133 | 22.5 | 32.2 | 0.41 | 5.18 | 5.18 | 94 | 1017.5 |
| 20260906180404 | 21 | 112 | 22.5 | 27.4 | 0.46 | 5.16 | 5.16 | 94 | 1017.4 |
| 20260906175403 | 21 | 120 | 22.5 | 41.8 | 0.64 | 5.08 | 5.08 | 92 | 1017.5 |
| 20260906174403 | 20 | 108 | 43.5 | 61.2 | 1.50 | 5.03 | 5.03 | 91 | 1016.2 |
| 20260906173904 | 20 | 104 | 30.6 | 45.1 | 2.13 | 5.03 | 5.03 | 89 | 1015.8 |
| 20260906173404 | 20 | 109 | 33.8 | 56.3 | 2.57 | 5.03 | 5.03 | 89 | 1015.6 |
| 20260906172903 | 19 | 113 | 37.0 | 46.7 | 3.00 | 5.00 | 5.00 | 91 | 1015.9 |
| 20260906172404 | 18 | 113 | 37.0 | 48.3 | 3.71 | 4.95 | 4.95 | 94 | 1016.0 |
| 20260906171904 | 18 | 111 | 38.6 | 56.3 | 4.01 | 4.93 | 4.93 | 95 | 1016.7 |
| 20260906171404 | 19 | 117 | 29.0 | 45.1 | 4.42 | 4.85 | 4.85 | 97 | 1017.3 |
| 20260906170403 | 19 | 121 | 22.5 | 32.2 | 4.70 | 4.70 | 4.70 | 97 | 1017.5 |
| 20260906165904 | 19 | 108 | 22.5 | 32.2 | 4.62 | 4.62 | 4.62 | 97 | 1017.0 |
| 20260906165404 | 19 | 101 | 27.4 | 37.0 | 4.45 | 4.45 | 4.45 | 98 | 1016.9 |
| 20260906164904 | 18 | 114 | 27.4 | 37.0 | 4.09 | 4.09 | 4.09 | 97 | 1017.4 |
| 20260906163404 | 18 | 102 | 19.3 | 29.0 | 2.46 | 2.46 | 2.46 | 97 | 1018.5 |
| 20260906162904 | 19 | 73 | 20.9 | 35.4 | 2.01 | 2.01 | 2.01 | 97 | 1018.1 |
| 20260906162404 | 19 | 89 | 16.1 | 27.4 | 1.24 | 1.24 | 1.24 | 97 | 1017.2 |
| 20260906161904 | 19 | 50 | 27.4 | 40.2 | 0.91 | 0.91 | 0.91 | 96 | 1016.4 |
| 20260906161404 | 19 | 15 | 38.6 | 51.5 | 0.43 | 0.43 | 0.43 | 95 | 1016.4 |
| 20260906160903 | 20 | 38 | 32.2 | 51.5 | 0.05 | 0.05 | 0.05 | 94 | 1017.1 |
| 20260906160404 | 19 | 41 | 19.3 | 32.2 | 0.00 | 0.00 | 0.00 | 93 | 1017.7 |
| 20260906155904 | 19 | 67 | 30.6 | 57.9 | 0.00 | 0.00 | 0.00 | 92 | 1016.5 |
| 20260906155404 | 20 | 58 | 33.8 | 56.3 | 0.00 | 0.00 | 0.00 | 88 | 1016.1 |
| 20260906154903 | 21 | 22 | 20.9 | 33.8 | 0.00 | 0.03 | 0.00 | 85 | 1016.7 |
| 20260906153904 | 22 | 46 | 27.4 | 38.6 | 0.00 | 0.03 | 0.00 | 91 | 1016.5 |
| 20260906153404 | 22 | 77 | 16.1 | 32.2 | 0.00 | 0.05 | 0.00 | 98 | 1016.2 |
| 20260906152903 | 22 | 106 | 17.7 | 20.9 | 0.00 | 0.08 | 0.00 | 99 | 1015.8 |
| 20260906152404 | 22 | 90 | 16.1 | 22.5 | 0.00 | 0.13 | 0.00 | 98 | 1015.6 |
| 20260906151903 | 22 | 94 | 14.5 | 22.5 | 0.00 | 0.18 | 0.00 | 98 | 1015.6 |
| 20260906151403 | 22 | 92 | 14.5 | 19.3 | 0.00 | 0.20 | 0.00 | 98 | 1015.5 |
| 20260906150403 | 22 | 106 | 19.3 | 24.1 | 0.00 | 0.28 | 0.00 | 98 | 1015.4 |
| 20260906145904 | 22 | 117 | 14.5 | 22.5 | 0.00 | 0.30 | 0.00 | 99 | 1015.4 |
| 20260906144904 | 22 | 133 | 12.9 | 19.3 | 0.00 | 0.30 | 0.00 | 99 | 1015.3 |
| 20260906144404 | 22 | 127 | 17.7 | 22.5 | 0.00 | 0.30 | 0.00 | 99 | 1015.4 |
| 20260906141904 | 22 | 124 | 14.5 | 24.1 | 0.00 | 0.43 | 0.00 | 99 | 1015.7 |
| 20260906141403 | 22 | 119 | 16.1 | 24.1 | 0.00 | 0.46 | 0.00 | 99 | 1015.6 |
| 20260906140404 | 22 | 134 | 14.5 | 20.9 | 0.00 | 0.48 | 0.00 | 99 | 1015.6 |
| 20260906135404 | 22 | 129 | 17.7 | 22.5 | 0.00 | 0.51 | 0.00 | 99 | 1015.5 |
| 20260906134903 | 21 | 126 | 16.1 | 24.1 | 0.00 | 0.51 | 0.00 | 99 | 1015.5 |
| 20260906134403 | 22 | 126 | 16.1 | 22.5 | 0.00 | 0.51 | 0.00 | 99 | 1015.4 |
| 20260906133904 | 22 | 131 | 14.5 | 20.9 | 0.00 | 0.51 | 0.00 | 99 | 1015.4 |
| 20260906133404 | 22 | 135 | 12.9 | 19.3 | 0.00 | 0.51 | 0.00 | 99 | 1015.3 |
| 20260906132903 | 21 | 142 | 14.5 | 22.5 | 0.00 | 0.51 | 0.00 | 99 | 1015.2 |
| 20260906131903 | 21 | 136 | 14.5 | 20.9 | 0.00 | 0.51 | 0.00 | 99 | 1015.1 |
| 20260906131404 | 21 | 129 | 12.9 | 19.3 | 0.00 | 0.51 | 0.00 | 99 | 1015.3 |
| 20260906130904 | 21 | 133 | 11.3 | 19.3 | 0.00 | 0.51 | 0.00 | 99 | 1015.3 |
| 20260906130404 | 21 | 140 | 14.5 | 19.3 | 0.00 | 0.51 | 0.00 | 99 | 1015.3 |
| 20260906125903 | 21 | 132 | 11.3 | 19.3 | 0.00 | 0.51 | 0.00 | 99 | 1015.3 |
| 20260906124904 | 21 | 127 | 14.5 | 19.3 | 0.00 | 0.51 | 0.00 | 99 | 1015.4 |
| 20260906124403 | 21 | 126 | 12.9 | 19.3 | 0.00 | 0.51 | 0.00 | 99 | 1015.4 |
| 20260906123903 | 21 | 127 | 11.3 | 19.3 | 0.00 | 0.51 | 0.00 | 99 | 1015.3 |
| 20260906123404 | 21 | 129 | 11.3 | 19.3 | 0.00 | 0.51 | 0.00 | 99 | 1015.2 |
| 20260906122903 | 21 | 125 | 12.9 | 20.9 | 0.00 | 0.51 | 0.00 | 99 | 1015.2 |
| 20260906121903 | 21 | 131 | 14.5 | 19.3 | 0.00 | 0.51 | 0.00 | 99 | 1015.2 |
| 20260906120903 | 21 | 140 | 14.5 | 20.9 | 0.00 | 0.51 | 0.00 | 99 | 1014.9 |
| 20260906120404 | 21 | 142 | 14.5 | 22.5 | 0.00 | 0.51 | 0.00 | 99 | 1014.8 |
| 20260906115904 | 21 | 140 | 16.1 | 20.9 | 0.00 | 0.51 | 0.00 | 99 | 1014.8 |
| 20260906115403 | 21 | 136 | 11.3 | 19.3 | 0.00 | 0.51 | 0.00 | 99 | 1014.8 |
| 20260906114904 | 21 | 132 | 14.5 | 22.5 | 0.00 | 0.51 | 0.00 | 99 | 1014.6 |
| 20260906113904 | 21 | 132 | 12.9 | 19.3 | 0.00 | 0.51 | 0.00 | 99 | 1014.6 |
| 20260906113404 | 21 | 125 | 14.5 | 19.3 | 0.00 | 0.51 | 0.00 | 99 | 1014.6 |
| 20260906112403 | 21 | 138 | 14.5 | 20.9 | 0.00 | 0.51 | 0.00 | 99 | 1014.6 |
| 20260906111904 | 21 | 128 | 16.1 | 22.5 | 0.00 | 0.51 | 0.00 | 99 | 1014.5 |
| 20260906111404 | 21 | 125 | 14.5 | 19.3 | 0.00 | 0.51 | 0.00 | 99 | 1014.6 |
| 20260906105903 | 21 | 135 | 14.5 | 20.9 | 0.00 | 0.51 | 0.00 | 99 | 1014.7 |
| 20260906105404 | 21 | 130 | 11.3 | 19.3 | 0.00 | 0.51 | 0.00 | 99 | 1014.7 |
| 20260906104904 | 21 | 136 | 16.1 | 20.9 | 0.00 | 0.51 | 0.00 | 99 | 1014.7 |
| 20260906104404 | 21 | 132 | 12.9 | 20.9 | 0.00 | 0.51 | 0.00 | 99 | 1014.7 |
| 20260906103404 | 21 | 133 | 16.1 | 20.9 | 0.00 | 0.51 | 0.00 | 99 | 1014.7 |
| 20260906102904 | 21 | 129 | 12.9 | 19.3 | 0.00 | 0.51 | 0.00 | 99 | 1014.8 |
| 20260906101904 | 21 | 137 | 14.5 | 20.9 | 0.00 | 0.51 | 0.00 | 99 | 1014.9 |
| 20260906101404 | 21 | 126 | 14.5 | 19.3 | 0.00 | 0.51 | 0.00 | 99 | 1014.9 |
| 20260906100904 | 21 | 132 | 12.9 | 19.3 | 0.00 | 0.51 | 0.00 | 99 | 1014.9 |
| 20260906100403 | 21 | 138 | 14.5 | 19.3 | 0.00 | 0.51 | 0.00 | 100 | 1014.9 |
| 20260906095403 | 21 | 137 | 12.9 | 20.9 | 0.00 | 0.51 | 0.00 | 99 | 1014.8 |
| 20260906094903 | 21 | 140 | 14.5 | 22.5 | 0.00 | 0.51 | 0.00 | 99 | 1014.8 |
| 20260906093903 | 21 | 135 | 12.9 | 19.3 | 0.00 | 0.51 | 0.00 | 99 | 1014.7 |
| 20260906093404 | 21 | 130 | 11.3 | 20.9 | 0.00 | 0.51 | 0.00 | 99 | 1014.7 |
| 20260906092903 | 21 | 128 | 14.5 | 20.9 | 0.00 | 0.51 | 0.00 | 99 | 1014.6 |
| 20260906092403 | 21 | 131 | 16.1 | 24.1 | 0.00 | 0.51 | 0.00 | 99 | 1014.6 |
| 20260906091903 | 21 | 130 | 16.1 | 20.9 | 0.00 | 0.51 | 0.00 | 99 | 1014.5 |
| 20260906091403 | 21 | 128 | 12.9 | 20.9 | 0.00 | 0.51 | 0.00 | 99 | 1014.5 |
| 20260906090904 | 21 | 134 | 14.5 | 22.5 | 0.00 | 0.51 | 0.00 | 99 | 1014.5 |
| 20260906090404 | 21 | 127 | 11.3 | 20.9 | 0.00 | 0.51 | 0.00 | 99 | 1014.5 |
| 20260906085403 | 21 | 127 | 11.3 | 19.3 | 0.00 | 0.51 | 0.00 | 99 | 1014.4 |
| 20260906083904 | 21 | 131 | 14.5 | 20.9 | 0.00 | 0.51 | 0.00 | 99 | 1014.4 |
| 20260906083404 | 21 | 124 | 16.1 | 22.5 | 0.00 | 0.51 | 0.00 | 99 | 1014.4 |
| 20260906082904 | 21 | 119 | 14.5 | 20.9 | 0.00 | 0.51 | 0.00 | 99 | 1014.3 |
| 20260906082404 | 21 | 123 | 16.1 | 20.9 | 0.00 | 0.51 | 0.00 | 99 | 1014.2 |
| 20260906081903 | 21 | 123 | 14.5 | 19.3 | 0.00 | 0.51 | 0.00 | 99 | 1014.3 |
| 20260906081404 | 21 | 115 | 16.1 | 19.3 | 0.00 | 0.51 | 0.00 | 99 | 1014.4 |
| 20260906080904 | 21 | 116 | 14.5 | 19.3 | 0.00 | 0.51 | 0.00 | 99 | 1014.4 |
| 20260906080404 | 21 | 121 | 11.3 | 19.3 | 0.00 | 0.51 | 0.00 | 99 | 1014.4 |
| 20260906075903 | 21 | 122 | 14.5 | 20.9 | 0.00 | 0.51 | 0.00 | 99 | 1014.3 |
| 20260906075404 | 21 | 124 | 11.3 | 19.3 | 0.00 | 0.51 | 0.00 | 99 | 1014.3 |
| 20260906074903 | 21 | 123 | 12.9 | 19.3 | 0.00 | 0.51 | 0.00 | 99 | 1014.3 |
| 20260906074404 | 21 | 130 | 11.3 | 19.3 | 0.00 | 0.51 | 0.00 | 99 | 1014.4 |
| 20260906073903 | 21 | 125 | 14.5 | 22.5 | 0.00 | 0.51 | 0.00 | 99 | 1014.3 |
| 20260906073404 | 21 | 121 | 14.5 | 20.9 | 0.00 | 0.51 | 0.00 | 99 | 1014.1 |
| 20260906072904 | 21 | 122 | 14.5 | 19.3 | 0.00 | 0.51 | 0.00 | 99 | 1014.3 |
| 20260906072403 | 21 | 118 | 12.9 | 16.1 | 0.00 | 0.51 | 0.00 | 99 | 1014.3 |
| 20260906071904 | 21 | 120 | 14.5 | 19.3 | 0.00 | 0.51 | 0.00 | 99 | 1014.3 |
| 20260906070904 | 22 | 122 | 14.5 | 20.9 | 0.00 | 0.51 | 0.00 | 99 | 1014.4 |
| 20260906070404 | 22 | 121 | 14.5 | 19.3 | 0.00 | 0.51 | 0.00 | 99 | 1014.4 |
| 20260906065903 | 22 | 122 | 14.5 | 19.3 | 0.00 | 0.51 | 0.00 | 99 | 1014.4 |
| 20260906065403 | 22 | 128 | 12.9 | 19.3 | 0.00 | 0.51 | 0.00 | 99 | 1014.5 |
| 20260906064904 | 22 | 125 | 11.3 | 19.3 | 0.00 | 0.51 | 0.00 | 99 | 1014.4 |
| 20260906064403 | 22 | 132 | 11.3 | 19.3 | 0.00 | 0.51 | 0.00 | 99 | 1014.4 |
| 20260906063904 | 22 | 125 | 14.5 | 19.3 | 0.00 | 0.51 | 0.00 | 99 | 1014.6 |
| 20260906063404 | 22 | 128 | 14.5 | 20.9 | 0.00 | 0.51 | 0.00 | 99 | 1014.6 |
| 20260906062904 | 22 | 122 | 14.5 | 20.9 | 0.00 | 0.51 | 0.00 | 99 | 1014.5 |
| 20260906062404 | 22 | 123 | 16.1 | 20.9 | 0.00 | 0.51 | 0.00 | 99 | 1014.5 |
| 20260906061903 | 22 | 119 | 12.9 | 24.1 | 0.00 | 0.51 | 0.00 | 99 | 1014.6 |
| 20260906060903 | 22 | 116 | 14.5 | 22.5 | 0.00 | 0.51 | 0.00 | 99 | 1014.6 |
| 20260906060403 | 22 | 114 | 16.1 | 19.3 | 0.00 | 0.51 | 0.00 | 99 | 1014.6 |
| 20260906055904 | 22 | 117 | 16.1 | 20.9 | 0.00 | 0.51 | 0.00 | 99 | 1014.6 |
| 20260906055403 | 22 | 122 | 17.7 | 24.1 | 0.00 | 0.51 | 0.00 | 99 | 1014.5 |
| 20260906054904 | 22 | 131 | 16.1 | 22.5 | 0.00 | 0.51 | 0.00 | 99 | 1014.5 |
| 20260906053904 | 22 | 118 | 17.7 | 24.1 | 0.00 | 0.51 | 0.00 | 99 | 1014.6 |
| 20260906053404 | 22 | 123 | 16.1 | 20.9 | 0.00 | 0.51 | 0.00 | 99 | 1014.6 |
| 20260906052904 | 22 | 120 | 11.3 | 19.3 | 0.00 | 0.51 | 0.00 | 99 | 1014.6 |
| 20260906052404 | 22 | 113 | 12.9 | 19.3 | 0.00 | 0.51 | 0.00 | 99 | 1014.5 |
| 20260906051904 | 22 | 111 | 14.5 | 19.3 | 0.00 | 0.51 | 0.00 | 98 | 1014.5 |
| 20260906051404 | 22 | 108 | 11.3 | 14.5 | 0.00 | 0.51 | 0.00 | 98 | 1014.5 |
| 20260906050903 | 22 | 111 | 12.9 | 19.3 | 0.00 | 0.51 | 0.00 | 98 | 1014.6 |
| 20260906050403 | 22 | 109 | 9.7 | 12.9 | 0.00 | 0.51 | 0.00 | 98 | 1014.6 |
| 20260906045903 | 22 | 123 | 11.3 | 14.5 | 0.00 | 0.51 | 0.51 | 98 | 1014.6 |
| 20260906045404 | 22 | 128 | 9.7 | 16.1 | 0.00 | 0.51 | 0.51 | 98 | 1014.5 |
| 20260906044404 | 23 | 122 | 11.3 | 16.1 | 0.00 | 0.51 | 0.51 | 98 | 1014.5 |
| 20260906043904 | 23 | 138 | 9.7 | 12.9 | 0.00 | 0.51 | 0.51 | 98 | 1014.5 |
| 20260906043403 | 23 | 133 | 8.0 | 14.5 | 0.00 | 0.51 | 0.51 | 98 | 1014.4 |
| 20260906042904 | 23 | 125 | 8.0 | 11.3 | 0.00 | 0.51 | 0.51 | 98 | 1014.2 |
| 20260906042404 | 23 | 125 | 8.0 | 12.9 | 0.00 | 0.51 | 0.51 | 98 | 1014.2 |
| 20260906041404 | 23 | 124 | 9.7 | 11.3 | 0.00 | 0.51 | 0.51 | 98 | 1014.2 |
| 20260906040903 | 23 | 115 | 8.0 | 12.9 | 0.00 | 0.51 | 0.51 | 98 | 1014.2 |
| 20260906040403 | 23 | 111 | 9.7 | 14.5 | 0.00 | 0.51 | 0.51 | 98 | 1014.1 |
| 20260906035904 | 23 | 108 | 11.3 | 14.5 | 0.00 | 0.51 | 0.51 | 98 | 1014.1 |
| 20260906035404 | 23 | 106 | 11.3 | 16.1 | 0.00 | 0.51 | 0.51 | 98 | 1014.0 |
| 20260906034403 | 23 | 112 | 9.7 | 12.9 | 0.00 | 0.51 | 0.51 | 97 | 1014.0 |
| 20260906033904 | 23 | 100 | 9.7 | 14.5 | 0.00 | 0.51 | 0.51 | 97 | 1014.0 |
| 20260906033404 | 23 | 108 | 9.7 | 14.5 | 0.00 | 0.51 | 0.51 | 97 | 1014.0 |
| 20260906032903 | 23 | 94 | 9.7 | 12.9 | 0.00 | 0.51 | 0.51 | 97 | 1014.1 |
| 20260906032404 | 23 | 93 | 8.0 | 11.3 | 0.00 | 0.51 | 0.51 | 96 | 1014.2 |
| 20260906031404 | 23 | 93 | 9.7 | 14.5 | 0.00 | 0.51 | 0.51 | 96 | 1014.3 |
| 20260906030403 | 23 | 88 | 11.3 | 14.5 | 0.00 | 0.51 | 0.51 | 96 | 1014.4 |
| 20260906025903 | 23 | 82 | 6.4 | 14.5 | 0.00 | 0.51 | 0.51 | 96 | 1014.5 |
| 20260906025404 | 23 | 78 | 9.7 | 14.5 | 0.00 | 0.51 | 0.51 | 96 | 1014.4 |
| 20260906024904 | 24 | 85 | 8.0 | 12.9 | 0.00 | 0.51 | 0.51 | 96 | 1014.4 |
| 20260906024403 | 24 | 81 | 9.7 | 14.5 | 0.00 | 0.51 | 0.51 | 96 | 1014.4 |
| 20260906023904 | 24 | 80 | 6.4 | 12.9 | 0.00 | 0.51 | 0.51 | 96 | 1014.4 |
| 20260906023404 | 24 | 80 | 4.8 | 8.0 | 0.00 | 0.51 | 0.51 | 96 | 1014.5 |
| 20260906022904 | 24 | 80 | 6.4 | 12.9 | 0.00 | 0.51 | 0.51 | 95 | 1014.2 |
| 20260906022403 | 24 | 80 | 4.8 | 11.3 | 0.00 | 0.51 | 0.51 | 95 | 1014.0 |
| 20260906021903 | 23 | 80 | 3.2 | 8.0 | 0.00 | 0.51 | 0.51 | 94 | 1014.0 |
| 20260906021404 | 24 | 80 | 4.8 | 8.0 | 0.00 | 0.51 | 0.51 | 94 | 1014.0 |
| 20260906020404 | 24 | 80 | 4.8 | 11.3 | 0.00 | 0.51 | 0.51 | 93 | 1014.2 |
| 20260906015903 | 24 | 80 | 6.4 | 11.3 | 0.00 | 0.51 | 0.51 | 93 | 1014.2 |
| 20260906014904 | 25 | 80 | 4.8 | 8.0 | 0.00 | 0.51 | 0.51 | 93 | 1014.1 |
| 20260906014404 | 25 | 80 | 4.8 | 8.0 | 0.00 | 0.51 | 0.51 | 93 | 1014.1 |
| 20260906013903 | 24 | 80 | 6.4 | 11.3 | 0.00 | 0.51 | 0.51 | 93 | 1014.0 |
| 20260906013403 | 24 | 85 | 6.4 | 12.9 | 0.00 | 0.51 | 0.51 | 93 | 1013.7 |
| 20260906012403 | 24 | 97 | 3.2 | 4.8 | 0.00 | 0.51 | 0.51 | 92 | 1013.6 |
| 20260906011904 | 24 | 97 | 3.2 | 4.8 | 0.00 | 0.51 | 0.51 | 92 | 1013.6 |
| 20260906011403 | 24 | 97 | 3.2 | 4.8 | 0.00 | 0.51 | 0.51 | 91 | 1013.7 |
| 20260906010903 | 25 | 97 | 1.6 | 3.2 | 0.00 | 0.51 | 0.51 | 90 | 1013.5 |
| 20260906010403 | 25 | 97 | 3.2 | 4.8 | 0.00 | 0.51 | 0.51 | 90 | 1013.5 |
| 20260906005903 | 25 | 97 | 4.8 | 9.7 | 0.00 | 0.51 | 0.51 | 90 | 1013.4 |
| 20260906005403 | 25 | 97 | 3.2 | 4.8 | 0.00 | 0.51 | 0.51 | 90 | 1013.5 |
| 20260906004404 | 25 | 97 | 4.8 | 9.7 | 0.00 | 0.51 | 0.51 | 89 | 1013.5 |
| 20260906003904 | 25 | 97 | 4.8 | 4.8 | 0.00 | 0.51 | 0.51 | 88 | 1013.5 |
| 20260906003403 | 25 | 97 | 4.8 | 4.8 | 0.00 | 0.51 | 0.51 | 87 | 1013.4 |
| 20260906002903 | 26 | 97 | 4.8 | 9.7 | 0.00 | 0.51 | 0.51 | 87 | 1013.5 |
| 20260906001904 | 26 | 97 | 8.0 | 11.3 | 0.00 | 0.51 | 0.51 | 85 | 1013.5 |
| 20260906001404 | 26 | 97 | 9.7 | 14.5 | 0.00 | 0.51 | 0.51 | 84 | 1013.5 |
| 20260906000904 | 26 | 94 | 8.0 | 12.9 | 0.00 | 0.51 | 0.51 | 84 | 1013.4 |
| 20260906000403 | 26 | 113 | 11.3 | 19.3 | 0.00 | 0.51 | 0.51 | 83 | 1013.4 |
| 20260905235903 | 27 | 103 | 9.7 | 16.1 | 0.00 | 0.51 | 0.51 | 83 | 1013.4 |
| 20260905235403 | 27 | 95 | 11.3 | 19.3 | 0.00 | 0.51 | 0.51 | 82 | 1013.4 |
| 20260905234403 | 27 | 99 | 16.1 | 20.9 | 0.00 | 0.51 | 0.51 | 80 | 1013.3 |
| 20260905233904 | 27 | 105 | 19.3 | 24.1 | 0.00 | 0.51 | 0.51 | 79 | 1013.3 |
| 20260905233405 | 27 | 101 | 16.1 | 22.5 | 0.00 | 0.51 | 0.51 | 79 | 1013.4 |
| 20260905232904 | 27 | 102 | 19.3 | 25.7 | 0.00 | 0.51 | 0.51 | 78 | 1013.4 |
| 20260905232403 | 27 | 108 | 14.5 | 20.9 | 0.00 | 0.51 | 0.51 | 79 | 1013.3 |
| 20260905231903 | 27 | 113 | 14.5 | 20.9 | 0.00 | 0.51 | 0.51 | 79 | 1013.3 |
| 20260905231404 | 27 | 112 | 20.9 | 25.7 | 0.00 | 0.51 | 0.51 | 77 | 1013.3 |
| 20260905230903 | 27 | 123 | 17.7 | 24.1 | 0.00 | 0.51 | 0.51 | 78 | 1013.3 |
| 20260905230404 | 27 | 118 | 20.9 | 27.4 | 0.00 | 0.51 | 0.51 | 77 | 1013.3 |
| 20260905225903 | 27 | 117 | 19.3 | 27.4 | 0.00 | 0.51 | 0.51 | 77 | 1013.2 |
| 20260905225404 | 27 | 114 | 16.1 | 25.7 | 0.00 | 0.51 | 0.51 | 78 | 1013.2 |
| 20260905224904 | 27 | 121 | 17.7 | 25.7 | 0.00 | 0.51 | 0.51 | 77 | 1013.2 |
| 20260905223904 | 27 | 121 | 16.1 | 22.5 | 0.00 | 0.51 | 0.51 | 77 | 1013.1 |
| 20260905223404 | 27 | 123 | 17.7 | 22.5 | 0.00 | 0.51 | 0.51 | 76 | 1013.0 |
| 20260905222404 | 27 | 101 | 16.1 | 22.5 | 0.00 | 0.51 | 0.51 | 74 | 1013.0 |
| 20260905221904 | 28 | 118 | 17.7 | 25.7 | 0.00 | 0.51 | 0.51 | 74 | 1012.9 |
| 20260905221404 | 28 | 122 | 16.1 | 22.5 | 0.00 | 0.51 | 0.51 | 74 | 1012.9 |
| 20260905220404 | 28 | 112 | 16.1 | 20.9 | 0.00 | 0.51 | 0.51 | 73 | 1012.7 |
| 20260905215903 | 28 | 119 | 14.5 | 24.1 | 0.00 | 0.51 | 0.51 | 74 | 1012.7 |
| 20260905215404 | 28 | 120 | 19.3 | 22.5 | 0.00 | 0.51 | 0.51 | 73 | 1012.6 |
| 20260905214904 | 27 | 104 | 17.7 | 25.7 | 0.00 | 0.51 | 0.51 | 74 | 1012.5 |
| 20260905214403 | 28 | 101 | 19.3 | 27.4 | 0.00 | 0.51 | 0.51 | 72 | 1012.5 |
| 20260905212904 | 27 | 117 | 17.7 | 22.5 | 0.00 | 0.51 | 0.51 | 73 | 1012.5 |
| 20260905212403 | 27 | 119 | 16.1 | 20.9 | 0.00 | 0.51 | 0.51 | 73 | 1012.5 |
| 20260905211904 | 27 | 104 | 16.1 | 25.7 | 0.00 | 0.51 | 0.51 | 73 | 1012.4 |
| 20260905210903 | 27 | 97 | 16.1 | 25.7 | 0.00 | 0.51 | 0.51 | 73 | 1012.5 |
| 20260905210403 | 27 | 93 | 14.5 | 20.9 | 0.00 | 0.51 | 0.51 | 73 | 1012.5 |
| 20260905205903 | 27 | 114 | 12.9 | 19.3 | 0.00 | 0.51 | 0.51 | 73 | 1012.6 |
| 20260905205404 | 28 | 119 | 14.5 | 22.5 | 0.00 | 0.51 | 0.51 | 72 | 1012.6 |
| 20260905204903 | 28 | 103 | 16.1 | 20.9 | 0.00 | 0.51 | 0.51 | 72 | 1012.6 |
| 20260905204404 | 28 | 112 | 17.7 | 22.5 | 0.00 | 0.51 | 0.51 | 70 | 1012.7 |
| 20260905203904 | 28 | 116 | 19.3 | 24.1 | 0.00 | 0.51 | 0.51 | 69 | 1012.7 |
| 20260905202904 | 28 | 92 | 16.1 | 22.5 | 0.00 | 0.51 | 0.51 | 68 | 1012.6 |
| 20260905201903 | 28 | 105 | 19.3 | 27.4 | 0.00 | 0.51 | 0.51 | 69 | 1012.5 |
| 20260905201403 | 28 | 100 | 19.3 | 25.7 | 0.00 | 0.51 | 0.51 | 70 | 1012.5 |
| 20260905200904 | 28 | 108 | 22.5 | 27.4 | 0.00 | 0.51 | 0.51 | 70 | 1012.3 |
| 20260905200404 | 28 | 103 | 20.9 | 27.4 | 0.00 | 0.51 | 0.51 | 70 | 1012.3 |
| 20260905195904 | 28 | 80 | 19.3 | 32.2 | 0.00 | 0.51 | 0.51 | 70 | 1012.3 |
| 20260905195407 | 28 | 92 | 20.9 | 25.7 | 0.00 | 0.51 | 0.51 | 69 | 1012.4 |
| 20260905194903 | 28 | 96 | 19.3 | 25.7 | 0.00 | 0.51 | 0.51 | 72 | 1012.4 |
| 20260905194404 | 27 | 106 | 17.7 | 22.5 | 0.00 | 0.51 | 0.51 | 73 | 1012.5 |
| 20260905193903 | 27 | 83 | 16.1 | 24.1 | 0.00 | 0.51 | 0.51 | 72 | 1012.3 |
| 20260905193404 | 27 | 91 | 16.1 | 20.9 | 0.00 | 0.51 | 0.51 | 71 | 1012.7 |
| 20260905192904 | 27 | 86 | 17.7 | 27.4 | 0.00 | 0.51 | 0.51 | 71 | 1012.8 |
| 20260905192404 | 27 | 91 | 19.3 | 25.7 | 0.00 | 0.51 | 0.51 | 71 | 1012.8 |
| 20260905191904 | 27 | 92 | 19.3 | 27.4 | 0.00 | 0.51 | 0.51 | 73 | 1012.9 |
| 20260905191403 | 26 | 101 | 19.3 | 25.7 | 0.00 | 0.51 | 0.51 | 75 | 1013.0 |
| 20260905190403 | 26 | 125 | 20.9 | 29.0 | 0.00 | 0.51 | 0.51 | 76 | 1013.2 |
| 20260905185904 | 27 | 117 | 20.9 | 29.0 | 0.00 | 0.51 | 0.51 | 75 | 1013.1 |
| 20260905185404 | 28 | 124 | 20.9 | 32.2 | 0.00 | 0.51 | 0.51 | 75 | 1013.1 |
| 20260905184904 | 28 | 130 | 14.5 | 19.3 | 0.00 | 0.51 | 0.51 | 70 | 1012.9 |
| 20260905184403 | 28 | 128 | 8.0 | 12.9 | 0.00 | 0.51 | 0.51 | 73 | 1012.9 |